Time;durP1;ratioP1;P1;durP2;ratioP2;P2;SDS_P1;SDS_P2;PMS_P1;PMS_P2;Temp;Humidity;BMP_temperature;BMP_pressure;BME280_temperature;BME280_humidity;BME280_pressure;Samples;Min_cycle;Max_cycle;Signal;HPM_P1;HPM_P2
2023/12/23 00:01:48;;;;;;;;;;;;;;;22.19;23.09;96105.69;5032717;28;1975;-74
2023/12/23 00:04:13;;;;;;;;;;;;;;;22.70;22.31;96126.94;5016668;28;1087;-74
2023/12/23 00:06:39;;;;;;;;;;;;;;;22.77;22.18;96120.06;5033144;28;1063;-74
2023/12/23 00:09:05;;;;;;;;;;;;;;;22.86;21.89;96112.16;5032744;28;1066;-74
2023/12/23 00:11:30;;;;;;;;;;;;;;;23.00;21.83;96129.59;5032797;28;943;-74
2023/12/23 00:13:56;;;;;;;;;;;;;;;22.54;22.33;96141.69;5036268;28;1315;-74
2023/12/23 00:16:24;;;;;;;;;;;;;;;22.68;22.29;96132.31;5052986;28;933;-75
2023/12/23 00:18:49;;;;;;;;;;;;;;;22.47;22.51;96130.78;5052975;28;963;-75
2023/12/23 00:21:15;;;;;;;;;;;;;;;21.92;23.17;96134.38;5038736;28;1906;-75
2023/12/23 00:23:40;;;;;;;;;;;;;;;22.25;22.97;96142.59;5056153;28;989;-75
2023/12/23 00:26:06;;;;;;;;;;;;;;;22.27;23.02;96145.69;5039779;28;1185;-74
2023/12/23 00:28:32;;;;;;;;;;;;;;;22.21;22.96;96145.63;5040140;28;1019;-74
2023/12/23 00:30:57;;;;;;;;;;;;;;;22.10;23.19;96151.91;5039771;28;1599;-74
2023/12/23 00:33:24;;;;;;;;;;;;;;;22.12;23.14;96140.09;5039496;28;1269;-74
2023/12/23 00:35:49;;;;;;;;;;;;;;;22.11;23.07;96155.53;5020983;28;1243;-74
2023/12/23 00:38:15;;;;;;;;;;;;;;;22.24;22.82;96150.31;5003112;28;1134;-74
2023/12/23 00:40:40;;;;;;;;;;;;;;;22.82;22.31;96151.31;5019629;28;1975;-74
2023/12/23 00:43:06;;;;;;;;;;;;;;;23.14;21.71;96159.94;4999879;28;1512;-74
2023/12/23 00:45:32;;;;;;;;;;;;;;;22.92;21.95;96159.69;5014652;28;1035;-75
2023/12/23 00:47:57;;;;;;;;;;;;;;;22.84;21.93;96156.47;5019387;28;1773;-74
2023/12/23 00:50:23;;;;;;;;;;;;;;;22.49;22.49;96142.41;5002891;28;1064;-74
2023/12/23 00:52:48;;;;;;;;;;;;;;;21.99;23.27;96143.22;5003107;28;1237;-74
2023/12/23 00:55:14;;;;;;;;;;;;;;;22.35;22.76;96136.28;4999282;28;975;-75
2023/12/23 00:57:40;;;;;;;;;;;;;;;22.62;22.67;96137.91;4983478;28;1257;-74
2023/12/23 01:00:06;;;;;;;;;;;;;;;22.74;22.35;96130.34;5016165;28;1977;-74
2023/12/23 01:02:31;;;;;;;;;;;;;;;22.93;22.04;96132.88;4999776;28;1098;-74
2023/12/23 01:04:57;;;;;;;;;;;;;;;23.05;22.04;96131.72;4967009;28;1113;-74
2023/12/23 01:07:22;;;;;;;;;;;;;;;22.72;22.29;96138.56;4999628;28;957;-74
2023/12/23 01:09:48;;;;;;;;;;;;;;;21.95;23.25;96141.88;4960513;28;1140;-74
2023/12/23 01:12:13;;;;;;;;;;;;;;;22.20;22.94;96138.41;4960542;28;1111;-74
2023/12/23 01:14:39;;;;;;;;;;;;;;;22.38;22.95;96143.00;4944396;28;1190;-74
2023/12/23 01:17:05;;;;;;;;;;;;;;;22.70;22.53;96132.63;4976644;28;1005;-74
2023/12/23 01:19:30;;;;;;;;;;;;;;;23.13;22.06;96130.00;4976421;28;1011;-74
2023/12/23 01:21:57;;;;;;;;;;;;;;;23.21;22.03;96130.31;4976412;28;1979;-75
2023/12/23 01:24:23;;;;;;;;;;;;;;;22.70;22.48;96138.28;4960425;28;1143;-74
2023/12/23 01:26:48;;;;;;;;;;;;;;;21.88;23.59;96130.97;4976525;28;1246;-74
2023/12/23 01:29:14;;;;;;;;;;;;;;;22.11;23.31;96130.03;4938157;29;1064;-74
2023/12/23 01:31:39;;;;;;;;;;;;;;;22.45;22.91;96139.00;4939345;29;1034;-74
2023/12/23 01:34:05;;;;;;;;;;;;;;;22.75;22.29;96117.72;4957054;28;1140;-74
2023/12/23 01:36:30;;;;;;;;;;;;;;;23.07;22.13;96143.34;4956853;29;994;-75
2023/12/23 01:38:57;;;;;;;;;;;;;;;23.30;21.72;96150.81;4925160;29;1163;-74
2023/12/23 01:41:23;;;;;;;;;;;;;;;23.15;22.16;96138.78;4956742;29;1906;-74
2023/12/23 01:43:48;;;;;;;;;;;;;;;22.83;22.36;96141.50;4956728;28;1261;-74
2023/12/23 01:46:14;;;;;;;;;;;;;;;22.17;23.08;96135.78;4953242;29;1644;-74
2023/12/23 01:48:39;;;;;;;;;;;;;;;21.88;23.90;96133.78;4953718;29;1079;-75
2023/12/23 01:51:05;;;;;;;;;;;;;;;22.35;23.18;96141.19;4953382;28;1187;-74
2023/12/23 01:53:31;;;;;;;;;;;;;;;22.59;22.73;96143.81;4937661;29;1096;-74
2023/12/23 01:55:56;;;;;;;;;;;;;;;23.12;22.09;96139.81;4953318;28;1124;-75
2023/12/23 01:58:23;;;;;;;;;;;;;;;23.21;22.03;96125.47;4953558;28;1457;-74
2023/12/23 02:00:49;;;;;;;;;;;;;;;22.68;22.60;96126.66;5004803;28;1914;-74
2023/12/23 02:03:15;;;;;;;;;;;;;;;22.06;23.48;96106.00;4998424;28;949;-74
2023/12/23 02:05:40;;;;;;;;;;;;;;;22.33;23.32;96109.75;4998378;28;1448;-73
2023/12/23 02:08:06;;;;;;;;;;;;;;;22.09;23.74;96107.84;4998439;28;972;-74
2023/12/23 02:10:31;;;;;;;;;;;;;;;22.81;22.63;96104.38;4998359;28;1143;-74
2023/12/23 02:13:15;;;;;;;;;;;;;;;22.58;22.85;96091.22;4983865;28;994;-74
2023/12/23 02:15:41;;;;;;;;;;;;;;;22.76;22.56;96090.94;4975470;28;1382;-74
2023/12/23 02:18:07;;;;;;;;;;;;;;;22.83;22.58;96098.97;4989631;28;1217;-75
2023/12/23 02:20:33;;;;;;;;;;;;;;;22.68;22.77;96095.47;4978737;28;1898;-74
2023/12/23 02:22:59;;;;;;;;;;;;;;;22.19;23.06;96077.38;4978719;28;956;-74
2023/12/23 02:25:26;;;;;;;;;;;;;;;21.78;24.14;96071.63;4978666;28;988;-74
2023/12/23 02:27:55;;;;;;;;;;;;;;;22.53;23.02;96072.09;4978646;28;979;-74
2023/12/23 02:30:21;;;;;;;;;;;;;;;23.05;22.27;96066.47;4978706;28;1256;-74
2023/12/23 02:32:48;;;;;;;;;;;;;;;22.86;22.59;96069.63;4978617;28;1021;-74
2023/12/23 02:35:14;;;;;;;;;;;;;;;23.28;21.95;96068.25;4962199;28;1010;-74
2023/12/23 02:37:41;;;;;;;;;;;;;;;22.98;22.08;96067.72;4994674;28;1102;-74
2023/12/23 02:40:07;;;;;;;;;;;;;;;21.87;23.80;96061.47;4946651;28;1907;-74
2023/12/23 02:42:33;;;;;;;;;;;;;;;22.24;23.55;96061.72;4962024;28;1132;-74
2023/12/23 02:44:59;;;;;;;;;;;;;;;22.08;23.54;96043.22;4962312;28;1166;-74
2023/12/23 02:47:25;;;;;;;;;;;;;;;22.18;23.62;96038.22;4958314;28;1208;-74
2023/12/23 02:49:51;;;;;;;;;;;;;;;22.16;23.66;96041.53;5010069;28;950;-74
2023/12/23 02:52:16;;;;;;;;;;;;;;;22.24;23.42;96034.16;5017414;28;1446;-75
2023/12/23 02:54:42;;;;;;;;;;;;;;;22.47;22.94;96037.25;4968484;28;1255;-75
2023/12/23 02:57:07;;;;;;;;;;;;;;;22.63;22.73;96042.31;5000841;28;1143;-74
2023/12/23 02:59:33;;;;;;;;;;;;;;;22.75;22.87;96049.69;4993905;28;966;-74
2023/12/23 03:01:58;;;;;;;;;;;;;;;22.91;22.25;96056.06;4994425;28;1985;-74
2023/12/23 03:04:24;;;;;;;;;;;;;;;23.00;22.42;96047.34;4974431;28;1019;-74
2023/12/23 03:06:50;;;;;;;;;;;;;;;23.03;22.22;96043.53;4974701;28;1447;-74
2023/12/23 03:09:15;;;;;;;;;;;;;;;22.57;22.88;96055.66;4958563;28;976;-74
2023/12/23 03:11:41;;;;;;;;;;;;;;;21.82;24.19;96049.56;4974507;28;1160;-74
2023/12/23 03:14:06;;;;;;;;;;;;;;;21.97;24.01;96043.06;4958687;28;1172;-74
2023/12/23 03:16:35;;;;;;;;;;;;;;;22.53;23.15;96049.41;4958420;28;1414;-74
2023/12/23 03:19:02;;;;;;;;;;;;;;;22.29;23.44;96053.28;4974736;28;1297;-74
2023/12/23 03:21:27;;;;;;;;;;;;;;;22.88;22.56;96044.41;4958339;28;1968;-75
2023/12/23 03:23:53;;;;;;;;;;;;;;;23.13;22.32;96050.56;4974467;28;1170;-74
2023/12/23 03:26:18;;;;;;;;;;;;;;;23.21;22.45;96045.22;4974795;28;936;-74
2023/12/23 03:28:44;;;;;;;;;;;;;;;22.64;22.68;96049.56;4958892;28;1270;-74
2023/12/23 03:31:09;;;;;;;;;;;;;;;22.52;23.02;96037.31;4974329;28;1065;-74
2023/12/23 03:33:35;;;;;;;;;;;;;;;22.28;23.49;96034.72;4974681;28;1038;-74
2023/12/23 03:36:00;;;;;;;;;;;;;;;22.18;23.62;96022.00;4990136;28;1151;-74
2023/12/23 03:38:26;;;;;;;;;;;;;;;22.05;23.61;96015.88;5035322;28;1018;-74
2023/12/23 03:40:52;;;;;;;;;;;;;;;22.05;23.91;96021.53;5018069;28;1906;-74
2023/12/23 03:43:18;;;;;;;;;;;;;;;21.90;23.81;96024.44;5035511;28;947;-74
2023/12/23 03:45:44;;;;;;;;;;;;;;;22.47;23.29;96020.25;5018143;28;1335;-74
2023/12/23 03:48:10;;;;;;;;;;;;;;;22.71;23.07;96026.44;5051548;28;1257;-74
2023/12/23 03:50:35;;;;;;;;;;;;;;;22.92;22.70;96017.91;5037450;28;960;-74
2023/12/23 03:53:01;;;;;;;;;;;;;;;23.05;22.59;96024.72;5021565;28;1274;-74
2023/12/23 03:55:32;;;;;;;;;;;;;;;22.95;22.58;96045.25;5038730;28;968;-74
2023/12/23 03:58:00;;;;;;;;;;;;;;;22.70;22.77;96049.63;5024865;28;1124;-74
2023/12/23 04:00:26;;;;;;;;;;;;;;;22.55;23.21;96052.56;5016606;28;1997;-74
2023/12/23 04:02:52;;;;;;;;;;;;;;;22.31;23.34;96059.22;5016913;28;1058;-74
2023/12/23 04:05:18;;;;;;;;;;;;;;;22.38;23.12;96071.41;5017393;28;940;-74
2023/12/23 04:07:43;;;;;;;;;;;;;;;22.98;22.78;96078.28;4984566;28;1121;-75
2023/12/23 04:10:09;;;;;;;;;;;;;;;22.92;22.78;96071.78;4981068;28;1104;-74
2023/12/23 04:12:34;;;;;;;;;;;;;;;23.14;22.29;96064.25;4997264;28;925;-74
2023/12/23 04:15:00;;;;;;;;;;;;;;;22.75;22.85;96061.03;4996934;28;1374;-74
2023/12/23 04:17:25;;;;;;;;;;;;;;;22.53;23.20;96077.75;4981333;28;963;-74
2023/12/23 04:19:51;;;;;;;;;;;;;;;22.11;23.83;96064.88;4980871;28;1993;-74
2023/12/23 04:22:17;;;;;;;;;;;;;;;22.07;23.87;96081.28;4980981;28;1295;-74
2023/12/23 04:24:42;;;;;;;;;;;;;;;22.49;23.34;96102.72;4964791;28;1401;-74
2023/12/23 04:27:08;;;;;;;;;;;;;;;22.74;23.01;96104.03;4980676;28;1163;-75
2023/12/23 04:29:33;;;;;;;;;;;;;;;22.96;22.77;96114.88;4980752;28;1132;-74
2023/12/23 04:31:59;;;;;;;;;;;;;;;22.70;23.00;96115.59;4940195;28;1818;-74
2023/12/23 04:34:25;;;;;;;;;;;;;;;21.91;24.01;96105.25;4957728;28;1401;-74
2023/12/23 04:36:51;;;;;;;;;;;;;;;22.28;23.81;96114.06;4958026;28;1179;-74
2023/12/23 04:39:17;;;;;;;;;;;;;;;21.91;24.31;96104.47;4957948;28;1229;-75
2023/12/23 04:41:47;;;;;;;;;;;;;;;22.38;23.43;96088.41;4972129;28;1987;-74
2023/12/23 04:44:13;;;;;;;;;;;;;;;22.65;23.24;96085.13;4961072;28;1210;-74
2023/12/23 04:46:39;;;;;;;;;;;;;;;22.88;22.72;96080.50;4960918;28;1256;-74
2023/12/23 04:49:05;;;;;;;;;;;;;;;23.03;22.51;96069.81;4977716;28;1031;-74
2023/12/23 04:51:30;;;;;;;;;;;;;;;22.66;23.18;96080.25;4977110;28;1149;-74
2023/12/23 04:53:56;;;;;;;;;;;;;;;22.46;23.24;96087.47;4945051;28;1201;-74
2023/12/23 04:56:22;;;;;;;;;;;;;;;22.41;23.56;96104.41;4960890;28;1139;-74
2023/12/23 04:58:48;;;;;;;;;;;;;;;22.06;23.98;96096.72;4941471;29;1260;-74
2023/12/23 05:01:13;;;;;;;;;;;;;;;22.29;23.59;96087.28;4957585;28;1906;-74
2023/12/23 05:03:39;;;;;;;;;;;;;;;22.97;22.56;96076.72;4972644;28;963;-75
2023/12/23 05:06:05;;;;;;;;;;;;;;;22.87;22.94;96071.19;4976412;28;1018;-74
2023/12/23 05:08:32;;;;;;;;;;;;;;;23.09;22.42;96061.38;4977009;28;1200;-74
2023/12/23 05:10:58;;;;;;;;;;;;;;;23.02;22.65;96056.16;4981984;28;1249;-75
2023/12/23 05:13:23;;;;;;;;;;;;;;;22.21;23.68;96049.31;4999438;28;1159;-74
2023/12/23 05:15:49;;;;;;;;;;;;;;;22.29;23.75;96047.63;5015794;28;1003;-74
2023/12/23 05:18:15;;;;;;;;;;;;;;;22.20;23.82;96041.31;5015619;28;1070;-74
2023/12/23 05:20:40;;;;;;;;;;;;;;;22.59;23.43;96036.13;4983127;28;1969;-74
2023/12/23 05:23:06;;;;;;;;;;;;;;;22.90;22.87;96026.13;5015796;28;984;-74
2023/12/23 05:25:31;;;;;;;;;;;;;;;23.06;22.57;96022.66;5015862;28;1065;-74
2023/12/23 05:27:57;;;;;;;;;;;;;;;23.09;22.78;96027.31;4999064;28;1092;-74
2023/12/23 05:30:22;;;;;;;;;;;;;;;23.02;22.71;96017.22;4999252;28;1246;-74
2023/12/23 05:32:48;;;;;;;;;;;;;;;22.72;22.88;96005.31;5015592;28;1015;-75
2023/12/23 05:35:14;;;;;;;;;;;;;;;22.21;23.81;96008.88;5019094;28;964;-75
2023/12/23 05:37:39;;;;;;;;;;;;;;;22.31;23.79;95994.06;5023240;28;1127;-74
2023/12/23 05:40:05;;;;;;;;;;;;;;;21.71;24.46;95998.47;5039659;28;1971;-74
2023/12/23 05:42:31;;;;;;;;;;;;;;;22.27;23.69;96004.81;4995525;28;1242;-74
2023/12/23 05:44:56;;;;;;;;;;;;;;;22.21;23.89;96003.97;4963244;28;1064;-74
2023/12/23 05:47:22;;;;;;;;;;;;;;;22.73;23.03;96023.88;4979270;28;1197;-74
2023/12/23 05:49:47;;;;;;;;;;;;;;;22.95;22.90;96039.56;4995571;28;970;-74
2023/12/23 05:52:13;;;;;;;;;;;;;;;23.01;22.65;96043.25;4979264;28;1039;-74
2023/12/23 05:54:38;;;;;;;;;;;;;;;23.15;22.42;96048.00;4963141;28;1179;-74
2023/12/23 05:57:04;;;;;;;;;;;;;;;23.21;22.54;96063.03;4978979;28;920;-74
2023/12/23 05:59:29;;;;;;;;;;;;;;;22.44;23.48;96058.09;4979189;28;1124;-75
2023/12/23 06:01:55;;;;;;;;;;;;;;;22.29;23.83;96029.84;4979161;28;1979;-74
2023/12/23 06:04:21;;;;;;;;;;;;;;;22.26;23.79;96025.94;4995526;28;898;-74
2023/12/23 06:06:46;;;;;;;;;;;;;;;22.50;23.43;96022.88;4995434;28;1017;-75
2023/12/23 06:09:12;;;;;;;;;;;;;;;22.73;23.23;95995.50;4995298;28;1055;-74
2023/12/23 06:11:37;;;;;;;;;;;;;;;22.92;22.90;95995.22;4979029;28;995;-75
2023/12/23 06:14:03;;;;;;;;;;;;;;;22.88;23.21;95992.59;5023580;28;1283;-74
2023/12/23 06:16:28;;;;;;;;;;;;;;;22.98;22.83;95987.53;5034730;28;1138;-75
2023/12/23 06:18:54;;;;;;;;;;;;;;;22.85;23.08;95988.69;5017150;28;1448;-75
2023/12/23 06:21:19;;;;;;;;;;;;;;;22.20;23.70;95993.94;5034079;28;1909;-75
2023/12/23 06:23:45;;;;;;;;;;;;;;;22.36;23.53;95996.19;5017988;28;1074;-75
2023/12/23 06:26:11;;;;;;;;;;;;;;;21.82;24.68;95992.94;5034460;28;1100;-75
2023/12/23 06:28:36;;;;;;;;;;;;;;;22.38;23.95;95997.72;5017665;28;1245;-75
2023/12/23 06:31:02;;;;;;;;;;;;;;;22.74;23.34;96002.75;5017983;28;983;-75
2023/12/23 06:33:27;;;;;;;;;;;;;;;22.67;23.48;95991.84;5017826;28;1196;-75
2023/12/23 06:35:53;;;;;;;;;;;;;;;23.04;22.90;96008.19;5034275;28;1066;-75
2023/12/23 06:38:18;;;;;;;;;;;;;;;22.93;22.89;95996.75;5017458;28;927;-75
2023/12/23 06:40:44;;;;;;;;;;;;;;;22.49;23.63;95990.16;5034074;28;1979;-74
2023/12/23 06:43:09;;;;;;;;;;;;;;;22.43;23.41;96000.63;5017541;28;1134;-75
2023/12/23 06:45:35;;;;;;;;;;;;;;;22.39;23.72;95982.31;5033582;28;1044;-75
2023/12/23 06:48:00;;;;;;;;;;;;;;;22.30;23.68;96001.00;5017870;28;1245;-75
2023/12/23 06:50:26;;;;;;;;;;;;;;;22.69;23.33;96000.66;5035225;28;1404;-75
2023/12/23 06:52:51;;;;;;;;;;;;;;;22.79;23.07;95992.72;5053810;28;944;-75
2023/12/23 06:55:17;;;;;;;;;;;;;;;23.09;22.50;96013.13;5016975;28;1035;-75
2023/12/23 06:57:43;;;;;;;;;;;;;;;22.95;23.13;96011.19;5050346;28;1132;-75
2023/12/23 07:00:08;;;;;;;;;;;;;;;23.10;22.95;96006.19;5033559;28;1985;-75
2023/12/23 07:02:34;;;;;;;;;;;;;;;22.70;23.15;96013.53;4994124;28;1461;-75
2023/12/23 07:04:59;;;;;;;;;;;;;;;22.15;24.05;96020.13;4938994;28;1521;-75
2023/12/23 07:07:25;;;;;;;;;;;;;;;22.13;24.18;96016.25;4976439;28;1522;-75
2023/12/23 07:09:50;;;;;;;;;;;;;;;22.28;23.80;96003.56;4976946;28;1503;-75
2023/12/23 07:12:16;;;;;;;;;;;;;;;22.48;23.75;95990.63;4983016;28;1474;-75
2023/12/23 07:14:41;;;;;;;;;;;;;;;22.61;23.63;95999.53;4974585;28;1693;-75
2023/12/23 07:17:07;;;;;;;;;;;;;;;22.77;23.41;96001.75;4984853;28;1754;-75
2023/12/23 07:19:32;;;;;;;;;;;;;;;22.66;23.37;96010.16;4977023;28;1506;-74
2023/12/23 07:21:58;;;;;;;;;;;;;;;22.68;23.64;96009.63;4953248;28;1983;-74
2023/12/23 07:24:24;;;;;;;;;;;;;;;22.79;23.08;96004.84;4964526;28;2061;-74
2023/12/23 07:26:49;;;;;;;;;;;;;;;22.26;23.79;96003.28;4949238;28;1325;-74
2023/12/23 07:29:15;;;;;;;;;;;;;;;22.22;24.04;95997.03;4948581;28;1574;-74
2023/12/23 07:31:41;;;;;;;;;;;;;;;22.21;23.98;95995.50;4959228;29;1607;-74
2023/12/23 07:34:07;;;;;;;;;;;;;;;22.30;24.08;95975.50;4987134;28;1559;-74
2023/12/23 07:36:32;;;;;;;;;;;;;;;22.71;23.52;95969.72;4975930;28;1578;-74
2023/12/23 07:38:58;;;;;;;;;;;;;;;22.76;23.42;95971.06;5037137;28;1564;-74
2023/12/23 07:41:23;;;;;;;;;;;;;;;23.04;22.88;95985.50;5019912;28;1910;-75
2023/12/23 07:43:49;;;;;;;;;;;;;;;23.05;22.89;95965.16;5036733;28;1573;-76
2023/12/23 07:46:15;;;;;;;;;;;;;;;23.07;22.63;95973.16;5036762;28;1368;-75
2023/12/23 07:48:40;;;;;;;;;;;;;;;22.81;23.13;95973.94;5020634;28;970;-75
2023/12/23 07:51:06;;;;;;;;;;;;;;;22.65;23.25;95968.91;5020798;28;1017;-75
2023/12/23 07:53:32;;;;;;;;;;;;;;;22.06;24.28;95974.94;5037131;28;1051;-75
2023/12/23 07:55:58;;;;;;;;;;;;;;;22.21;24.02;95970.00;5020451;28;1068;-75
2023/12/23 07:58:23;;;;;;;;;;;;;;;22.73;23.58;95983.41;5020134;28;978;-75
2023/12/23 08:00:49;;;;;;;;;;;;;;;22.77;23.41;95996.06;5036799;28;1981;-75
2023/12/23 08:03:14;;;;;;;;;;;;;;;22.83;23.44;95990.44;5020603;28;977;-75
2023/12/23 08:05:40;;;;;;;;;;;;;;;22.81;23.24;95990.19;5020246;28;966;-75
2023/12/23 08:08:06;;;;;;;;;;;;;;;22.87;22.95;95980.44;5036831;28;1127;-75
2023/12/23 08:10:32;;;;;;;;;;;;;;;22.62;23.51;95986.91;5045283;28;1715;-75
2023/12/23 08:12:58;;;;;;;;;;;;;;;21.94;24.45;95991.03;5037399;28;1461;-75
2023/12/23 08:15:24;;;;;;;;;;;;;;;22.17;24.08;96003.41;5037265;28;1591;-75
2023/12/23 08:17:49;;;;;;;;;;;;;;;22.31;24.21;96022.38;5037817;28;1577;-75
2023/12/23 08:20:15;;;;;;;;;;;;;;;22.55;23.83;96029.88;5037712;28;1906;-75
2023/12/23 08:22:41;;;;;;;;;;;;;;;22.81;23.65;96042.00;5021650;28;995;-75
2023/12/23 08:25:07;;;;;;;;;;;;;;;22.91;23.36;96053.22;5020898;28;971;-75
2023/12/23 08:27:32;;;;;;;;;;;;;;;22.92;23.41;96060.44;5038256;28;877;-75
2023/12/23 08:29:58;;;;;;;;;;;;;;;22.95;23.26;96067.94;5039182;28;911;-75
2023/12/23 08:32:23;;;;;;;;;;;;;;;22.38;24.16;96065.72;5038937;28;925;-75
2023/12/23 08:34:49;;;;;;;;;;;;;;;22.30;24.09;96063.34;5016540;28;1117;-75
2023/12/23 08:37:14;;;;;;;;;;;;;;;21.57;25.00;96059.50;5000594;28;1158;-75
2023/12/23 08:39:40;;;;;;;;;;;;;;;22.50;23.66;96058.94;4983766;28;1029;-75
2023/12/23 08:42:05;;;;;;;;;;;;;;;22.91;23.31;96064.56;4999718;28;1906;-75
2023/12/23 08:44:31;;;;;;;;;;;;;;;23.09;22.79;96056.47;5000005;28;1280;-75
2023/12/23 08:46:56;;;;;;;;;;;;;;;22.71;23.72;96023.59;4999986;28;1117;-75
2023/12/23 08:49:22;;;;;;;;;;;;;;;22.68;23.67;96027.41;5016216;28;964;-75
2023/12/23 08:51:47;;;;;;;;;;;;;;;22.08;24.13;95992.22;5016153;28;1003;-75
2023/12/23 08:54:13;;;;;;;;;;;;;;;22.08;24.14;95980.91;5015907;28;1240;-75
2023/12/23 08:56:38;;;;;;;;;;;;;;;22.10;24.51;95995.34;5016363;28;1200;-74
2023/12/23 08:59:04;;;;;;;;;;;;;;;22.51;23.71;96000.97;5016268;28;1229;-74
2023/12/23 09:01:29;;;;;;;;;;;;;;;22.90;23.46;96015.56;5015930;28;1906;-75
2023/12/23 09:03:55;;;;;;;;;;;;;;;22.84;23.16;96001.28;4999872;28;1108;-74
2023/12/23 09:06:20;;;;;;;;;;;;;;;23.10;23.05;96006.19;5028176;28;1099;-75
2023/12/23 09:08:46;;;;;;;;;;;;;;;22.81;23.46;95999.47;5038786;28;1075;-76
2023/12/23 09:11:11;;;;;;;;;;;;;;;22.36;23.83;96001.84;5038879;28;1019;-75
2023/12/23 09:13:37;;;;;;;;;;;;;;;22.19;24.14;95992.38;5054969;28;1452;-75
2023/12/23 09:16:04;;;;;;;;;;;;;;;22.28;24.11;96006.41;5008619;28;1602;-75
2023/12/23 09:18:30;;;;;;;;;;;;;;;22.16;24.38;96015.25;4993937;28;1584;-75
2023/12/23 09:20:55;;;;;;;;;;;;;;;22.81;23.26;96030.66;5001955;28;1898;-75
2023/12/23 09:23:21;;;;;;;;;;;;;;;22.94;23.03;96012.50;5006130;28;1751;-75
2023/12/23 09:25:46;;;;;;;;;;;;;;;22.95;23.27;96005.53;5011516;28;1592;-75
2023/12/23 09:28:13;;;;;;;;;;;;;;;22.96;23.22;96002.22;4987077;28;1581;-75
2023/12/23 09:30:39;;;;;;;;;;;;;;;22.97;23.28;96003.00;4981295;28;1654;-75
2023/12/23 09:33:05;;;;;;;;;;;;;;;22.26;24.05;96019.50;4990980;28;1603;-75
2023/12/23 09:35:31;;;;;;;;;;;;;;;22.25;24.17;96030.06;5023070;28;1819;-75
2023/12/23 09:37:58;;;;;;;;;;;;;;;22.00;24.75;96020.19;5007857;28;1537;-76
2023/12/23 09:40:23;;;;;;;;;;;;;;;22.23;24.27;96026.94;5008190;28;1910;-75
2023/12/23 09:42:49;;;;;;;;;;;;;;;22.64;23.61;96015.56;5023827;28;1541;-74
2023/12/23 09:45:14;;;;;;;;;;;;;;;22.79;23.54;96029.59;5006617;28;1610;-75
2023/12/23 09:47:40;;;;;;;;;;;;;;;22.67;23.74;96023.03;5012260;28;1538;-75
2023/12/23 09:50:06;;;;;;;;;;;;;;;22.79;23.41;96016.19;5054703;28;1401;-75
2023/12/23 09:52:31;;;;;;;;;;;;;;;22.67;23.62;96003.19;5036673;28;1504;-75
2023/12/23 09:54:57;;;;;;;;;;;;;;;22.09;24.60;96011.56;5046281;28;1499;-75
2023/12/23 09:57:22;;;;;;;;;;;;;;;21.89;24.71;96002.28;5037737;28;1620;-74
2023/12/23 09:59:49;;;;;;;;;;;;;;;22.54;24.21;95965.97;5021478;28;1557;-75
2023/12/23 10:02:14;;;;;;;;;;;;;;;22.63;23.75;95988.47;5035009;28;1906;-75
2023/12/23 10:04:40;;;;;;;;;;;;;;;22.68;23.93;95982.06;5054189;28;1552;-75
2023/12/23 10:07:05;;;;;;;;;;;;;;;22.83;23.42;95968.53;5037715;28;1494;-75
2023/12/23 10:09:32;;;;;;;;;;;;;;;23.04;23.25;95968.50;5037229;28;1589;-75
2023/12/23 10:11:57;;;;;;;;;;;;;;;22.77;23.54;95983.97;5027609;28;1518;-74
2023/12/23 10:14:25;;;;;;;;;;;;;;;22.48;23.79;95967.94;5036205;28;1577;-75
2023/12/23 10:16:50;;;;;;;;;;;;;;;22.32;24.11;95960.84;5019222;28;1566;-75
2023/12/23 10:19:16;;;;;;;;;;;;;;;22.04;24.52;95957.69;5034019;28;1923;-75
2023/12/23 10:21:42;;;;;;;;;;;;;;;22.59;23.80;95973.75;5036351;28;1966;-75
2023/12/23 10:24:07;;;;;;;;;;;;;;;22.80;23.44;95978.06;5056420;28;1631;-75
2023/12/23 10:26:33;;;;;;;;;;;;;;;22.71;23.70;95981.06;5035169;28;1500;-75
2023/12/23 10:29:01;;;;;;;;;;;;;;;22.82;23.60;95986.84;5034765;28;1596;-75
2023/12/23 10:31:27;;;;;;;;;;;;;;;22.81;23.65;95996.63;5018524;28;1530;-75
2023/12/23 10:33:54;;;;;;;;;;;;;;;22.93;23.52;95996.75;5026939;28;1521;-75
2023/12/23 10:36:20;;;;;;;;;;;;;;;22.58;23.85;95980.69;5034848;28;1525;-75
2023/12/23 10:38:46;;;;;;;;;;;;;;;22.29;24.32;95968.28;5035102;28;1599;-75
2023/12/23 10:41:32;;;;;;;;;;;;;;;21.89;25.20;95973.97;5034897;28;1906;-75
2023/12/23 10:43:58;;;;;;;;;;;;;;;22.48;23.93;95963.06;5035969;28;1419;-75
2023/12/23 10:46:23;;;;;;;;;;;;;;;22.36;24.38;95993.34;5037214;28;1533;-75
2023/12/23 10:48:49;;;;;;;;;;;;;;;22.88;23.62;96001.88;5055689;28;1552;-76
2023/12/23 10:51:15;;;;;;;;;;;;;;;22.87;23.40;96028.66;5037365;28;1659;-75
2023/12/23 10:53:41;;;;;;;;;;;;;;;23.02;23.44;96050.47;5038472;28;1455;-74
2023/12/23 10:56:07;;;;;;;;;;;;;;;22.67;23.83;96057.06;5017063;28;1438;-75
2023/12/23 10:58:33;;;;;;;;;;;;;;;21.92;24.59;96060.75;5037989;28;1477;-75
2023/12/23 11:00:59;;;;;;;;;;;;;;;22.15;24.59;96033.53;4997028;28;1903;-74
2023/12/23 11:03:25;;;;;;;;;;;;;;;22.09;24.55;96056.09;4996806;28;1477;-75
2023/12/23 11:05:50;;;;;;;;;;;;;;;22.53;24.33;96049.41;4980795;28;1500;-74
2023/12/23 11:08:18;;;;;;;;;;;;;;;22.69;23.99;96056.53;4981206;28;1599;-75
2023/12/23 11:10:43;;;;;;;;;;;;;;;22.78;23.81;96064.91;4997399;28;1736;-75
2023/12/23 11:13:09;;;;;;;;;;;;;;;22.91;23.54;96061.72;4980933;28;1493;-75
2023/12/23 11:15:38;;;;;;;;;;;;;;;23.03;23.34;96071.88;4997100;28;1544;-75
2023/12/23 11:18:04;;;;;;;;;;;;;;;22.35;24.33;96070.34;4997519;28;888;-75
2023/12/23 11:20:33;;;;;;;;;;;;;;;22.22;24.44;96076.34;5013501;28;1965;-75
2023/12/23 11:23:17;;;;;;;;;;;;;;;22.00;24.97;96074.00;5013608;28;960;-75
2023/12/23 11:25:42;;;;;;;;;;;;;;;22.84;23.86;96075.00;4997169;28;1596;-75
2023/12/23 11:28:09;;;;;;;;;;;;;;;23.01;23.56;96065.94;4997514;28;931;-75
2023/12/23 11:30:38;;;;;;;;;;;;;;;23.03;23.44;96069.06;4981511;28;1012;-75
2023/12/23 11:33:03;;;;;;;;;;;;;;;23.13;23.40;96081.78;5035046;28;992;-75
2023/12/23 11:35:29;;;;;;;;;;;;;;;22.96;23.55;96092.97;5021457;28;1297;-75
2023/12/23 11:37:55;;;;;;;;;;;;;;;22.87;23.59;96090.25;5038129;28;1009;-75
2023/12/23 11:40:21;;;;;;;;;;;;;;;22.61;23.99;96078.91;5000416;28;1911;-75
2023/12/23 11:42:47;;;;;;;;;;;;;;;22.34;24.38;96078.06;5000761;28;1032;-75
2023/12/23 11:45:13;;;;;;;;;;;;;;;21.69;25.26;96085.13;5000526;28;1162;-74
2023/12/23 11:47:39;;;;;;;;;;;;;;;22.37;24.26;96062.13;5016698;28;1168;-75
2023/12/23 11:50:05;;;;;;;;;;;;;;;22.48;24.25;96058.63;5000898;28;1204;-75
2023/12/23 11:52:30;;;;;;;;;;;;;;;23.05;23.53;96055.13;5033093;28;1016;-75
2023/12/23 11:54:56;;;;;;;;;;;;;;;22.87;23.65;96051.34;5013472;28;1023;-75
2023/12/23 11:57:21;;;;;;;;;;;;;;;23.20;23.20;96050.09;4997261;28;1249;-75
2023/12/23 11:59:47;;;;;;;;;;;;;;;22.86;23.61;96060.34;4997198;28;1002;-74
2023/12/23 12:02:13;;;;;;;;;;;;;;;22.69;23.86;96070.72;4984507;28;1930;-74
2023/12/23 12:04:39;;;;;;;;;;;;;;;22.19;24.45;96068.88;4961589;28;1254;-74
2023/12/23 12:07:04;;;;;;;;;;;;;;;21.95;24.80;96057.69;4977507;28;908;-74
2023/12/23 12:09:30;;;;;;;;;;;;;;;22.44;24.17;96052.44;4977621;28;1180;-74
2023/12/23 12:11:55;;;;;;;;;;;;;;;22.79;23.89;96043.75;4961392;28;1136;-74
2023/12/23 12:14:21;;;;;;;;;;;;;;;22.92;23.56;96051.94;4993989;28;1173;-74
2023/12/23 12:16:46;;;;;;;;;;;;;;;23.02;23.45;96056.16;4998762;28;974;-75
2023/12/23 12:19:13;;;;;;;;;;;;;;;22.87;23.71;96074.03;5036737;28;972;-73
2023/12/23 12:21:38;;;;;;;;;;;;;;;22.29;24.26;96087.28;5020225;28;1902;-74
2023/12/23 12:24:04;;;;;;;;;;;;;;;22.40;24.05;96078.13;5003791;28;1210;-74
2023/12/23 12:26:30;;;;;;;;;;;;;;;22.49;24.13;96085.72;5004188;28;1284;-74
2023/12/23 12:28:55;;;;;;;;;;;;;;;22.50;24.15;96078.78;4988733;28;1100;-74
2023/12/23 12:31:21;;;;;;;;;;;;;;;22.54;23.97;96090.69;5021504;28;972;-74
2023/12/23 12:33:46;;;;;;;;;;;;;;;22.92;23.49;96080.28;5021050;28;1498;-74
2023/12/23 12:36:13;;;;;;;;;;;;;;;23.07;22.97;96076.06;4988501;28;1151;-74
2023/12/23 12:38:40;;;;;;;;;;;;;;;23.07;22.95;96092.31;5005156;28;1013;-74
2023/12/23 12:41:06;;;;;;;;;;;;;;;23.07;22.96;96086.63;5020849;28;1910;-74
2023/12/23 12:43:34;;;;;;;;;;;;;;;22.82;23.39;96088.91;5004485;28;946;-74
2023/12/23 12:46:00;;;;;;;;;;;;;;;22.85;23.29;96099.28;4999836;28;1250;-74
2023/12/23 12:48:26;;;;;;;;;;;;;;;23.10;23.11;96094.13;4983906;28;1308;-74
2023/12/23 12:50:53;;;;;;;;;;;;;;;22.85;23.21;96087.94;4961184;28;1356;-74